Time;durP1;ratioP1;P1;durP2;ratioP2;P2;SDS_P1;SDS_P2;PMS_P1;PMS_P2;Temp;Humidity;BMP_temperature;BMP_pressure;BME280_temperature;BME280_humidity;BME280_pressure;Samples;Min_cycle;Max_cycle;Signal;HPM_P1;HPM_P2
2021/06/12 00:02:07;;;;;;;7.72;5.40;;;;;;;18.54;63.19;99408.22;5089788;28;20107;-79
2021/06/12 00:04:33;;;;;;;10.50;5.80;;;;;;;18.43;63.22;99404.47;5088687;28;20024;-78
2021/06/12 00:06:58;;;;;;;8.10;5.90;;;;;;;18.06;64.82;99411.81;5089965;28;20518;-78
2021/06/12 00:09:25;;;;;;;8.50;6.13;;;;;;;17.80;65.81;99417.16;5089582;28;20501;-78
2021/06/12 00:11:51;;;;;;;9.63;5.60;;;;;;;17.68;66.39;99415.41;5089926;28;20024;-78
2021/06/12 00:14:17;;;;;;;8.85;6.00;;;;;;;17.49;67.00;99407.06;5090253;28;20037;-78
2021/06/12 00:16:42;;;;;;;6.57;5.93;;;;;;;17.39;67.49;99417.84;5089801;28;20113;-78
2021/06/12 00:19:08;;;;;;;10.45;6.28;;;;;;;17.42;67.25;99404.97;5088634;28;20123;-79
2021/06/12 00:21:36;;;;;;;11.52;5.82;;;;;;;17.40;66.98;99418.66;5090123;28;20016;-78
2021/06/12 00:24:07;;;;;;;9.70;6.68;;;;;;;17.32;66.58;99416.94;5088770;28;20031;-78
2021/06/12 00:26:33;;;;;;;10.57;5.95;;;;;;;17.40;66.41;99421.50;5074998;28;20519;-78
2021/06/12 00:28:58;;;;;;;15.52;5.60;;;;;;;17.46;65.70;99422.78;5090013;28;20039;-78
2021/06/12 00:31:24;;;;;;;8.32;5.60;;;;;;;17.43;66.06;99412.25;5087253;28;20028;-78
2021/06/12 00:33:49;;;;;;;15.18;6.53;;;;;;;17.58;65.60;99410.41;5093402;28;20059;-78
2021/06/12 00:36:15;;;;;;;9.45;6.00;;;;;;;17.71;65.19;99419.44;5093253;28;20052;-78
2021/06/12 00:38:41;;;;;;;9.15;5.78;;;;;;;17.82;65.15;99416.78;5091899;28;20044;-78
2021/06/12 00:41:07;;;;;;;7.22;5.63;;;;;;;17.83;64.78;99413.53;5093303;28;20074;-79
2021/06/12 00:43:34;;;;;;;10.60;6.47;;;;;;;17.88;64.82;99425.72;5091761;28;20036;-78
2021/06/12 00:46:00;;;;;;;8.52;5.65;;;;;;;17.60;65.37;99407.19;5091775;28;20471;-78
2021/06/12 00:48:27;;;;;;;13.15;6.05;;;;;;;17.43;66.01;99420.72;5092966;28;20120;-78
2021/06/12 00:50:54;;;;;;;10.30;6.38;;;;;;;17.26;66.62;99422.94;5092976;28;20043;-78
2021/06/12 00:53:36;;;;;;;8.20;5.65;;;;;;;17.24;66.90;99430.94;5091660;28;20024;-78
2021/06/12 00:56:06;;;;;;;13.60;6.43;;;;;;;16.97;67.79;99425.28;5093070;28;20028;-78
2021/06/12 00:58:33;;;;;;;10.47;6.13;;;;;;;17.10;67.45;99427.91;5091678;28;20094;-78
2021/06/12 01:00:59;;;;;;;7.93;5.97;;;;;;;17.33;66.92;99436.34;5092876;28;20024;-78
2021/06/12 01:03:27;;;;;;;17.40;6.13;;;;;;;17.37;66.58;99442.03;5091045;28;20050;-78
2021/06/12 01:05:54;;;;;;;10.75;6.38;;;;;;;17.42;66.39;99441.72;5091449;28;20060;-78
2021/06/12 01:08:20;;;;;;;9.52;6.28;;;;;;;17.54;65.86;99437.81;5091128;28;20056;-78
2021/06/12 01:10:46;;;;;;;10.55;6.65;;;;;;;17.33;66.23;99438.34;5091197;28;20016;-78
2021/06/12 01:13:53;;;;;;;10.80;5.85;;;;;;;17.25;66.67;99437.44;5091402;28;20024;-79
2021/06/12 01:16:43;;;;;;;7.75;6.43;;;;;;;17.24;66.72;99436.59;5090597;28;20067;-78
2021/06/12 01:19:37;;;;;;;9.55;6.03;;;;;;;17.45;66.34;99442.97;5091287;28;20096;-78
2021/06/12 01:22:08;;;;;;;10.07;6.30;;;;;;;17.33;66.65;99444.00;5091317;28;20024;-78
2021/06/12 01:24:53;;;;;;;7.32;6.43;;;;;;;17.23;66.77;99432.16;5092464;28;20263;-78
2021/06/12 01:27:21;;;;;;;13.13;6.93;;;;;;;17.23;67.10;99432.16;5090715;28;20038;-78
2021/06/12 01:30:06;;;;;;;7.88;5.85;;;;;;;17.43;66.79;99434.84;5091023;28;20039;-78
2021/06/12 01:32:33;;;;;;;7.88;7.07;;;;;;;17.40;66.54;99432.81;5090579;28;20032;-78
2021/06/12 01:35:05;;;;;;;7.47;6.07;;;;;;;17.15;67.29;99429.59;5091125;28;20437;-78
2021/06/12 01:37:33;;;;;;;11.25;7.32;;;;;;;17.12;67.77;99431.16;5091782;28;20036;-78
2021/06/12 01:40:01;;;;;;;12.27;7.25;;;;;;;17.04;67.98;99429.44;5092090;28;20028;-78
2021/06/12 01:42:27;;;;;;;11.48;7.45;;;;;;;17.09;68.31;99434.75;5070480;28;20045;-78
2021/06/12 01:44:53;;;;;;;16.52;6.97;;;;;;;17.12;68.01;99436.81;5089555;28;20119;-78
2021/06/12 01:47:19;;;;;;;14.25;6.95;;;;;;;17.01;68.80;99438.66;5092018;28;20056;-78
2021/06/12 01:49:48;;;;;;;11.93;6.75;;;;;;;16.97;68.43;99442.22;5090524;28;20027;-77
2021/06/12 01:52:15;;;;;;;14.27;7.38;;;;;;;16.90;68.67;99439.31;5091802;28;20020;-78
2021/06/12 01:54:42;;;;;;;7.97;6.53;;;;;;;16.94;68.46;99440.16;5090240;28;20029;-77
2021/06/12 01:57:08;;;;;;;9.90;6.75;;;;;;;16.93;68.36;99435.72;5091720;28;20016;-78
2021/06/12 01:59:35;;;;;;;15.40;7.53;;;;;;;17.06;67.92;99438.34;5090438;28;20024;-78
2021/06/12 02:02:01;;;;;;;9.38;6.82;;;;;;;17.14;67.44;99445.75;5090247;28;20020;-78
2021/06/12 02:04:28;;;;;;;8.40;6.97;;;;;;;17.19;67.49;99436.94;5090559;28;20032;-78
2021/06/12 02:07:02;;;;;;;7.97;6.50;;;;;;;17.29;66.78;99434.66;5091364;28;20099;-78
2021/06/12 02:09:29;;;;;;;9.48;6.22;;;;;;;17.32;66.82;99434.72;5089949;28;20048;-77
2021/06/12 02:11:57;;;;;;;9.20;6.78;;;;;;;17.43;66.46;99428.38;5091330;28;20027;-78
2021/06/12 02:14:23;;;;;;;9.82;6.60;;;;;;;17.45;66.18;99431.66;5090353;28;20031;-78
2021/06/12 02:16:50;;;;;;;13.70;7.20;;;;;;;17.10;67.30;99434.41;5089897;28;20028;-77
2021/06/12 02:19:16;;;;;;;10.68;7.32;;;;;;;16.89;68.19;99428.38;5091796;28;20028;-77
2021/06/12 02:21:42;;;;;;;8.63;5.82;;;;;;;17.16;67.72;99429.22;5089962;28;20433;-78
2021/06/12 02:24:09;;;;;;;20.55;8.15;;;;;;;17.02;67.83;99434.66;5091675;28;20040;-77
2021/06/12 02:26:39;;;;;;;10.80;6.40;;;;;;;16.87;68.85;99434.41;5090111;28;20067;-78
2021/06/12 02:29:07;;;;;;;14.43;7.32;;;;;;;17.00;68.44;99443.53;5091409;28;20028;-78
2021/06/12 02:31:40;;;;;;;18.77;7.22;;;;;;;17.12;68.23;99428.34;5089770;28;20043;-78
2021/06/12 02:34:06;;;;;;;10.80;6.20;;;;;;;17.20;67.43;99432.91;5091018;28;20103;-78
2021/06/12 02:36:32;;;;;;;14.80;7.03;;;;;;;17.31;67.72;99438.72;5089774;28;20032;-78
2021/06/12 02:38:57;;;;;;;16.35;7.22;;;;;;;17.57;67.13;99433.41;5089756;28;20043;-78
2021/06/12 02:41:23;;;;;;;24.33;7.35;;;;;;;17.65;66.63;99437.97;5089624;28;20081;-78
2021/06/12 02:43:48;;;;;;;14.85;6.60;;;;;;;17.75;66.62;99436.47;5089577;28;20028;-78
2021/06/12 02:46:20;;;;;;;20.83;7.50;;;;;;;17.82;66.12;99434.53;5089357;28;20055;-78
2021/06/12 02:48:51;;;;;;;11.82;6.25;;;;;;;17.83;66.60;99447.47;5090944;28;20036;-78
2021/06/12 02:51:17;;;;;;;10.60;6.05;;;;;;;17.76;66.53;99449.41;5090515;28;20035;-78
2021/06/12 02:53:45;;;;;;;11.98;6.78;;;;;;;17.54;66.83;99449.13;5091133;28;20036;-78
2021/06/12 02:56:11;;;;;;;12.98;6.80;;;;;;;17.22;68.01;99443.84;5089518;28;20108;-77
2021/06/12 02:58:40;;;;;;;14.35;6.55;;;;;;;17.01;69.00;99441.50;5090783;28;20040;-78
2021/06/12 03:01:06;;;;;;;17.42;8.65;;;;;;;16.74;69.91;99447.91;5090542;28;20527;-78
2021/06/12 03:03:34;;;;;;;20.15;7.80;;;;;;;16.73;70.03;99453.94;5089644;28;20417;-78
2021/06/12 03:06:00;;;;;;;17.00;7.13;;;;;;;16.63;71.32;99444.91;5089345;28;20468;-78
2021/06/12 03:08:32;;;;;;;14.85;7.57;;;;;;;16.73;71.03;99451.09;5090082;28;20059;-78
2021/06/12 03:11:00;;;;;;;14.75;7.50;;;;;;;16.53;71.20;99459.63;5089238;28;20113;-78
2021/06/12 03:13:27;;;;;;;17.83;7.45;;;;;;;16.55;71.48;99454.44;5089203;28;20123;-77
2021/06/12 03:16:00;;;;;;;14.65;7.35;;;;;;;16.53;71.20;99462.47;5089094;28;20039;-78
2021/06/12 03:18:27;;;;;;;14.63;7.50;;;;;;;16.80;70.61;99462.53;5089092;28;20043;-78
2021/06/12 03:21:00;;;;;;;15.10;7.28;;;;;;;16.89;70.13;99463.06;5090464;28;20024;-78
2021/06/12 03:23:28;;;;;;;13.55;6.07;;;;;;;17.06;69.99;99463.78;5089145;28;20028;-77
2021/06/12 03:25:55;;;;;;;16.85;8.05;;;;;;;17.20;68.76;99455.53;5090464;28;20054;-78
2021/06/12 03:28:21;;;;;;;23.92;8.10;;;;;;;17.17;69.25;99467.59;5090667;28;20105;-78
2021/06/12 03:30:47;;;;;;;13.23;7.63;;;;;;;17.18;69.24;99468.41;5090189;28;20024;-78
2021/06/12 03:33:13;;;;;;;9.70;6.45;;;;;;;17.21;68.76;99465.63;5089098;28;20089;-78
2021/06/12 03:35:40;;;;;;;13.38;6.63;;;;;;;17.15;68.77;99463.50;5088794;28;20032;-78
2021/06/12 03:38:06;;;;;;;11.13;7.00;;;;;;;17.18;68.84;99468.41;5088750;28;20024;-78
2021/06/12 03:40:31;;;;;;;12.10;7.45;;;;;;;16.90;69.74;99470.38;5090194;28;20122;-78
2021/06/12 03:42:57;;;;;;;15.20;7.85;;;;;;;16.69;70.62;99462.34;5088771;28;20490;-78
2021/06/12 03:45:24;;;;;;;23.15;7.80;;;;;;;16.76;70.61;99475.75;5089964;28;20028;-78
2021/06/12 03:47:51;;;;;;;15.45;7.35;;;;;;;16.82;70.44;99471.44;5083593;28;20040;-78
2021/06/12 03:50:18;;;;;;;9.73;6.60;;;;;;;16.82;70.46;99472.25;5086970;28;20030;-78
2021/06/12 03:52:45;;;;;;;7.78;6.97;;;;;;;16.82;70.56;99471.44;5084171;28;20437;-78
2021/06/12 03:55:11;;;;;;;9.05;7.30;;;;;;;16.86;70.86;99471.50;5086634;28;20048;-78
2021/06/12 03:57:38;;;;;;;16.55;7.57;;;;;;;16.98;70.68;99482.59;5085837;28;20037;-78
2021/06/12 04:00:12;;;;;;;8.95;6.93;;;;;;;17.09;70.70;99477.97;5084917;28;20091;-78
2021/06/12 04:02:38;;;;;;;14.43;7.07;;;;;;;17.12;70.51;99482.03;5087723;28;20417;-78
2021/06/12 04:05:05;;;;;;;12.80;7.45;;;;;;;17.21;70.63;99485.41;5087755;28;20016;-78
2021/06/12 04:07:31;;;;;;;9.93;6.68;;;;;;;17.31;69.89;99488.78;5088988;28;20048;-79
2021/06/12 04:09:56;;;;;;;10.25;7.40;;;;;;;17.20;70.46;99483.78;5087450;28;20032;-79
2021/06/12 04:12:22;;;;;;;11.63;7.13;;;;;;;17.24;70.74;99492.31;5090586;28;20078;-78
2021/06/12 04:14:48;;;;;;;12.95;7.60;;;;;;;17.13;71.00;99500.63;5086786;28;20031;-78
2021/06/12 04:17:16;;;;;;;13.05;6.93;;;;;;;17.09;71.27;99494.09;5088454;28;20554;-78
2021/06/12 04:19:42;;;;;;;8.90;7.47;;;;;;;17.10;71.51;99502.22;5088483;28;20418;-79
2021/06/12 04:22:08;;;;;;;9.45;7.75;;;;;;;17.18;71.66;99500.31;5087749;28;20473;-77
2021/06/12 04:24:34;;;;;;;9.27;7.28;;;;;;;17.26;70.97;99504.88;5090405;28;20079;-78
2021/06/12 04:26:59;;;;;;;14.85;7.93;;;;;;;17.20;71.00;99500.75;5085771;28;20070;-77
2021/06/12 04:29:25;;;;;;;10.05;8.13;;;;;;;17.19;71.67;99504.75;5089137;28;20097;-77
2021/06/12 04:31:50;;;;;;;18.83;8.68;;;;;;;17.23;71.54;99499.97;5086220;28;20031;-80
2021/06/12 04:34:16;;;;;;;15.85;9.05;;;;;;;17.25;71.34;99506.09;5090487;28;20115;-76
2021/06/12 04:36:41;;;;;;;10.25;7.85;;;;;;;17.34;71.84;99514.28;5090022;28;20490;-79
2021/06/12 04:39:07;;;;;;;14.98;7.93;;;;;;;17.34;71.41;99516.28;5092566;28;20044;-78
2021/06/12 04:41:32;;;;;;;8.93;7.57;;;;;;;17.23;71.16;99505.63;5091792;28;20046;-79
2021/06/12 04:43:58;;;;;;;14.07;8.40;;;;;;;17.26;71.53;99516.19;5093323;28;20425;-79
2021/06/12 04:46:23;;;;;;;13.50;8.00;;;;;;;17.29;71.42;99508.16;5091119;28;20504;-79
2021/06/12 04:48:49;;;;;;;11.30;8.38;;;;;;;17.20;71.31;99506.41;5087581;28;20100;-81
2021/06/12 04:51:14;;;;;;;16.27;8.48;;;;;;;17.16;72.02;99510.34;5087299;28;20020;-79
2021/06/12 04:53:40;;;;;;;10.45;8.60;;;;;;;17.25;72.34;99508.91;5092268;28;20036;-82
2021/06/12 04:56:05;;;;;;;14.57;9.27;;;;;;;17.36;72.89;99514.72;5091668;28;20111;-87
2021/06/12 04:58:31;;;;;;;12.60;8.50;;;;;;;17.47;72.61;99511.25;5089335;28;20035;-83
2021/06/12 05:00:57;;;;;;;17.83;11.27;;;;;;;17.67;71.30;99517.59;5087605;28;20048;-84
2021/06/12 05:03:22;;;;;;;17.08;11.25;;;;;;;17.63;71.50;99514.69;5086819;28;20112;-78
2021/06/12 05:05:48;;;;;;;15.57;9.65;;;;;;;17.81;71.04;99514.16;5083214;28;20478;-82
2021/06/12 05:08:17;;;;;;;13.07;9.77;;;;;;;17.84;69.88;99516.22;5072664;28;20053;-80
2021/06/12 05:10:43;;;;;;;16.17;10.50;;;;;;;17.90;69.28;99517.47;5073455;28;20170;-86
2021/06/12 05:13:08;;;;;;;17.83;10.00;;;;;;;17.89;69.51;99520.72;5073060;28;20519;-82
2021/06/12 05:15:35;;;;;;;15.75;9.43;;;;;;;17.99;69.86;99517.22;5072955;28;20020;-78
2021/06/12 05:18:06;;;;;;;9.13;8.13;;;;;;;18.03;69.26;99518.09;5071904;28;20056;-80
2021/06/12 05:20:35;;;;;;;13.50;8.80;;;;;;;18.15;68.17;99513.38;5072915;28;20048;-83
2021/06/12 05:23:02;;;;;;;13.52;8.55;;;;;;;18.21;67.82;99523.16;5072194;28;20040;-82
2021/06/12 05:25:29;;;;;;;12.27;7.97;;;;;;;18.26;66.43;99522.81;5072994;28;20055;-86
2021/06/12 05:27:55;;;;;;;10.95;8.95;;;;;;;18.20;67.71;99521.53;5071577;28;20083;-84
2021/06/12 05:30:21;;;;;;;9.63;7.53;;;;;;;18.23;67.58;99521.56;5071657;28;20032;-83
2021/06/12 05:32:46;;;;;;;12.02;8.25;;;;;;;18.31;67.82;99525.31;5070091;28;20469;-84
2021/06/12 05:35:12;;;;;;;14.98;10.23;;;;;;;18.31;66.71;99530.16;5070524;28;20028;-84
2021/06/12 05:37:39;;;;;;;19.98;13.05;;;;;;;18.45;67.79;99535.16;5073643;28;20126;-84
2021/06/12 05:40:07;;;;;;;24.75;13.95;;;;;;;18.49;67.52;99528.34;5090961;28;20061;-84
2021/06/12 05:42:32;;;;;;;15.07;13.45;;;;;;;18.48;66.31;99529.53;5089910;28;20032;-84
2021/06/12 05:44:58;;;;;;;25.83;12.85;;;;;;;18.57;66.80;99531.25;5090552;28;20078;-83
2021/06/12 05:47:24;;;;;;;14.75;12.23;;;;;;;18.50;66.61;99523.50;5091794;28;20478;-84
2021/06/12 05:49:49;;;;;;;13.80;11.50;;;;;;;18.60;67.73;99519.13;5090572;28;20035;-85
2021/06/12 05:52:14;;;;;;;23.48;21.17;;;;;;;18.76;66.74;99522.56;5090854;28;20077;-84
2021/06/12 05:54:40;;;;;;;14.68;12.18;;;;;;;18.88;65.98;99523.44;5090454;28;20039;-83
2021/06/12 05:57:06;;;;;;;20.67;13.80;;;;;;;18.87;66.17;99519.81;5090488;28;20028;-84
2021/06/12 05:59:31;;;;;;;18.60;13.65;;;;;;;18.92;66.84;99513.78;5091126;28;20052;-80
2021/06/12 06:01:57;;;;;;;20.05;15.48;;;;;;;19.03;66.86;99513.91;5086698;28;20031;-79
2021/06/12 06:04:22;;;;;;;18.48;15.32;;;;;;;19.10;66.86;99516.00;5078395;28;20111;-83
2021/06/12 06:06:50;;;;;;;21.40;16.23;;;;;;;19.19;65.43;99522.16;5088853;28;20077;-78
2021/06/12 06:09:15;;;;;;;21.10;14.25;;;;;;;19.35;64.87;99506.88;5092085;28;20051;-79
2021/06/12 06:11:41;;;;;;;22.08;15.90;;;;;;;19.33;66.27;99520.63;5078872;28;20417;-80
2021/06/12 09:15:40;;;;;;;9.50;5.75;;;;;;;24.09;45.86;99409.88;5208810;23;20064;-71
2021/06/12 09:18:05;;;;;;;17.98;11.25;;;;;;;24.45;44.94;99410.59;5058440;28;20041;-71
2021/06/12 09:20:31;;;;;;;7.72;5.72;;;;;;;24.57;45.39;99407.13;5053529;28;20044;-72
2021/06/12 09:23:18;;;;;;;7.90;4.78;;;;;;;24.64;44.40;99411.91;5052136;28;20223;-73
2021/06/12 09:25:48;;;;;;;100.85;60.17;;;;;;;24.66;43.14;99413.06;5052142;28;20029;-72
2021/06/12 09:28:13;;;;;;;;;;;;;;;24.77;43.61;99412.94;5051211;28;20025;-78
2021/06/12 09:30:39;;;;;;;28.30;16.77;;;;;;;24.86;44.34;99411.56;5050272;28;19977;-73
2021/06/12 09:33:05;;;;;;;8.38;6.25;;;;;;;25.01;40.01;99404.38;5054708;28;20085;-76
2021/06/12 09:35:36;;;;;;;8.35;5.00;;;;;;;24.95;41.00;99409.78;5068928;28;20060;-72
2021/06/12 09:38:22;;;;;;;6.85;4.15;;;;;;;24.73;42.55;99406.44;5065392;28;20033;-74
2021/06/12 09:40:47;;;;;;;10.35;4.90;;;;;;;24.75;45.11;99411.72;5062349;28;20233;-73
2021/06/12 09:43:13;;;;;;;5.38;4.15;;;;;;;24.91;44.82;99411.06;5071391;28;20020;-74
2021/06/12 09:45:39;;;;;;;7.53;3.53;;;;;;;25.26;41.37;99403.09;5071850;28;20409;-72
2021/06/12 09:48:08;;;;;;;10.25;3.88;;;;;;;24.94;43.61;99407.34;5068244;28;20041;-74
2021/06/12 09:50:34;;;;;;;5.07;2.92;;;;;;;25.15;39.33;99405.34;5060039;28;20032;-74
2021/06/12 09:53:13;;;;;;;8.23;2.92;;;;;;;25.37;38.58;99395.09;5057563;28;20112;-73
2021/06/12 09:55:39;;;;;;;4.03;2.58;;;;;;;25.34;38.23;99398.03;5072052;28;20039;-72
2021/06/12 09:58:05;;;;;;;3.00;2.80;;;;;;;25.62;37.44;99393.81;5070165;28;20028;-74
2021/06/12 10:00:41;;;;;;;3.45;2.60;;;;;;;25.71;40.13;99390.34;5065011;28;20124;-75
2021/06/12 10:03:16;;;;;;;5.15;3.08;;;;;;;25.52;39.42;99391.97;5056468;28;20098;-73
2021/06/12 10:05:42;;;;;;;3.85;2.63;;;;;;;26.09;37.59;99394.88;5053646;28;20083;-73
2021/06/12 10:08:08;;;;;;;2.60;2.40;;;;;;;25.85;37.21;99389.25;5069703;28;20032;-72
2021/06/12 10:10:34;;;;;;;2.28;2.08;;;;;;;25.70;37.40;99390.78;5053040;28;20111;-72
2021/06/12 10:13:03;;;;;;;2.63;2.35;;;;;;;26.21;33.31;99379.88;5052846;28;20025;-73
2021/06/12 10:15:29;;;;;;;2.85;2.38;;;;;;;26.29;36.06;99385.41;5054893;28;20116;-71
2021/06/12 10:17:55;;;;;;;2.25;2.05;;;;;;;26.19;35.18;99379.53;5052781;28;20029;-71
2021/06/12 10:20:23;;;;;;;4.57;2.30;;;;;;;26.40;32.25;99376.59;5054574;28;20032;-71
2021/06/12 10:22:51;;;;;;;3.42;2.63;;;;;;;26.30;36.96;99372.69;5052651;28;20086;-71
2021/06/12 10:25:18;;;;;;;3.33;2.50;;;;;;;26.24;37.06;99372.41;5069058;28;20137;-71
2021/06/12 10:27:44;;;;;;;3.38;2.28;;;;;;;26.29;37.52;99376.81;5069272;28;20060;-72
2021/06/12 10:30:13;;;;;;;2.70;2.50;;;;;;;26.47;33.77;99374.34;5069330;28;20071;-72
2021/06/12 10:32:44;;;;;;;4.60;2.10;;;;;;;26.52;32.77;99377.91;5070518;28;20017;-72
2021/06/12 10:35:11;;;;;;;2.53;2.33;;;;;;;26.49;33.89;99363.22;5070728;28;20064;-74
2021/06/12 10:37:58;;;;;;;2.65;2.45;;;;;;;26.36;33.54;99368.06;5069105;28;20028;-75
2021/06/12 10:40:35;;;;;;;3.70;2.80;;;;;;;25.74;35.77;99369.41;5058575;28;20574;-74
2021/06/12 10:43:37;;;;;;;2.72;2.50;;;;;;;25.99;38.25;99362.31;5057766;28;20940;-75
2021/06/12 10:46:02;;;;;;;3.50;3.00;;;;;;;26.11;38.27;99357.97;5046975;28;20455;-73
2021/06/12 10:48:36;;;;;;;4.30;2.30;;;;;;;25.86;37.14;99359.34;5064458;28;20028;-71
2021/06/12 10:51:06;;;;;;;2.72;2.38;;;;;;;26.09;36.92;99354.75;5070338;28;20028;-71
2021/06/12 10:53:36;;;;;;;2.95;2.50;;;;;;;26.20;37.19;99352.47;5068201;28;20032;-72
2021/06/12 10:56:04;;;;;;;3.63;2.42;;;;;;;26.01;36.61;99354.13;5068861;28;20036;-72
2021/06/12 10:58:32;;;;;;;2.58;2.38;;;;;;;26.15;36.30;99352.94;5068286;28;20028;-73
2021/06/12 11:01:18;;;;;;;2.50;2.30;;;;;;;26.59;35.03;99347.00;5062842;28;20038;-73
2021/06/12 11:04:16;;;;;;;2.30;2.10;;;;;;;26.77;35.67;99351.47;5065868;28;20016;-73
2021/06/12 11:06:50;;;;;;;6.65;2.35;;;;;;;26.52;33.70;99346.38;5068979;28;20056;-73
2021/06/12 11:09:19;;;;;;;2.35;2.15;;;;;;;26.73;35.00;99345.81;5069408;28;20016;-71
2021/06/12 11:11:53;;;;;;;3.42;2.35;;;;;;;26.52;34.57;99343.50;5069382;28;20028;-71
2021/06/12 11:14:21;;;;;;;2.25;2.05;;;;;;;26.49;34.99;99336.63;5060261;28;20012;-71
2021/06/12 11:17:09;;;;;;;2.65;2.45;;;;;;;26.83;36.42;99332.44;5069723;28;20077;-70
2021/06/12 11:19:45;;;;;;;2.40;2.20;;;;;;;26.66;35.44;99345.22;5061724;28;20505;-73
2021/06/12 11:22:32;;;;;;;4.45;2.58;;;;;;;26.68;37.18;99342.69;5063828;28;20063;-72
2021/06/12 11:25:01;;;;;;;9.60;3.42;;;;;;;26.65;37.29;99338.66;5065061;28;20151;-72
2021/06/12 11:27:34;;;;;;;2.70;2.50;;;;;;;26.80;37.07;99338.31;5069110;28;20535;-72
2021/06/12 11:30:17;;;;;;;4.10;2.70;;;;;;;26.52;36.19;99332.03;5060005;28;20048;-72
2021/06/12 11:33:01;;;;;;;2.72;2.53;;;;;;;26.73;34.87;99330.69;5067634;28;20486;-73
2021/06/12 11:35:44;;;;;;;6.35;2.58;;;;;;;26.61;35.97;99335.09;5064723;28;20036;-72
2021/06/12 11:38:18;;;;;;;6.50;3.30;;;;;;;26.75;36.47;99322.44;5058719;28;20021;-72
2021/06/12 11:40:51;;;;;;;3.42;3.10;;;;;;;26.95;36.07;99319.47;5055897;28;20028;-72
2021/06/12 11:43:38;;;;;;;3.30;3.00;;;;;;;26.85;37.27;99311.94;5048188;28;20115;-73
2021/06/12 11:46:11;;;;;;;4.30;2.90;;;;;;;27.00;38.21;99315.25;5058073;28;20025;-72
2021/06/12 11:48:43;;;;;;;3.78;2.65;;;;;;;27.50;37.73;99310.09;5065292;28;20039;-72
2021/06/12 11:51:12;;;;;;;2.70;2.50;;;;;;;27.67;36.88;99310.06;5066257;28;20082;-70
2021/06/12 11:53:38;;;;;;;4.93;2.78;;;;;;;27.72;34.86;99315.22;5069570;28;20029;-71
2021/06/12 11:56:03;;;;;;;3.83;3.15;;;;;;;27.56;35.18;99310.38;5069649;28;20130;-70
2021/06/12 11:58:29;;;;;;;3.03;2.72;;;;;;;27.52;36.53;99304.72;5068545;28;20094;-70
2021/06/12 12:00:54;;;;;;;2.97;2.78;;;;;;;27.44;38.60;99301.25;5068270;28;20131;-70
2021/06/12 12:03:20;;;;;;;4.32;2.95;;;;;;;27.02;39.29;99295.50;5069198;28;20025;-70
2021/06/12 12:05:46;;;;;;;3.47;2.75;;;;;;;26.96;38.73;99300.19;5069716;28;20035;-69
2021/06/12 12:08:14;;;;;;;3.50;2.72;;;;;;;26.74;38.93;99298.69;5067839;28;20409;-70
2021/06/12 12:10:42;;;;;;;2.90;2.65;;;;;;;26.99;38.81;99305.81;5069798;28;20041;-69
2021/06/12 12:13:33;;;;;;;4.68;2.47;;;;;;;26.47;38.37;99298.97;5067374;28;20512;-69
2021/06/12 12:15:59;;;;;;;2.78;2.00;;;;;;;26.13;38.82;99303.88;5061151;28;20055;-69
2021/06/12 12:18:24;;;;;;;7.55;3.28;;;;;;;26.10;39.75;99301.09;5057088;28;20040;-70
2021/06/12 12:20:52;;;;;;;5.50;3.38;;;;;;;25.97;39.45;99307.53;5056699;28;20029;-70
2021/06/12 12:23:19;;;;;;;3.75;2.30;;;;;;;25.89;40.87;99321.22;5054106;28;20033;-71
2021/06/12 12:25:45;;;;;;;4.60;2.25;;;;;;;25.53;40.27;99330.59;5071695;28;20039;-72
2021/06/12 12:28:14;;;;;;;8.98;2.72;;;;;;;25.28;40.38;99349.06;5073041;28;20412;-72
2021/06/12 12:30:42;;;;;;;4.88;2.78;;;;;;;25.07;42.38;99365.41;5068038;28;20025;-72
2021/06/12 12:33:11;;;;;;;6.88;2.72;;;;;;;23.91;44.93;99372.97;5071831;28;20119;-79
2021/06/12 12:35:38;;;;;;;7.80;2.45;;;;;;;22.72;47.27;99377.94;5072831;28;20068;-70
2021/06/12 12:38:21;;;;;;;2.00;1.90;;;;;;;22.21;48.17;99394.56;5062741;28;20044;-71
2021/06/12 12:40:48;;;;;;;5.93;2.15;;;;;;;21.69;48.67;99396.88;5056743;28;20029;-69
2021/06/12 12:43:16;;;;;;;7.80;2.85;;;;;;;21.36;50.23;99399.03;5053280;28;20116;-70
2021/06/12 12:45:44;;;;;;;9.85;2.67;;;;;;;21.20;51.11;99393.78;5071577;28;20040;-73
2021/06/12 12:48:13;;;;;;;5.97;2.22;;;;;;;21.17;51.06;99397.41;5054300;28;20441;-71
2021/06/12 12:50:40;;;;;;;9.23;3.63;;;;;;;21.16;51.37;99390.94;5060334;28;20033;-72
2021/06/12 12:53:11;;;;;;;4.82;3.38;;;;;;;20.86;54.23;99397.06;5052739;28;20060;-70
2021/06/12 12:55:39;;;;;;;6.82;3.60;;;;;;;20.95;56.61;99390.97;5067246;28;20170;-72
2021/06/12 12:58:06;;;;;;;6.65;3.00;;;;;;;21.10;54.51;99391.75;5064418;28;20056;-70
2021/06/12 13:00:34;;;;;;;9.52;3.00;;;;;;;21.40;56.61;99388.44;5067705;28;20032;-69
2021/06/12 13:03:03;;;;;;;4.07;2.70;;;;;;;21.31;53.76;99382.34;5072307;28;20477;-70
2021/06/12 13:05:37;;;;;;;3.80;2.57;;;;;;;21.21;55.83;99381.19;5072572;28;20033;-72
2021/06/12 13:08:04;;;;;;;4.07;2.75;;;;;;;20.65;55.86;99378.78;5052941;28;20033;-73
2021/06/12 13:10:42;;;;;;;12.73;3.50;;;;;;;20.57;55.86;99380.81;5064762;28;20032;-71
2021/06/12 13:13:10;;;;;;;7.40;3.05;;;;;;;20.45;55.76;99376.34;5062934;28;20017;-71
2021/06/12 13:15:36;;;;;;;8.23;2.95;;;;;;;20.65;55.53;99367.41;5061004;28;20037;-71
2021/06/12 13:18:08;;;;;;;23.83;4.85;;;;;;;21.01;54.92;99366.59;5055809;28;20072;-73
2021/06/12 13:20:35;;;;;;;39.35;6.30;;;;;;;21.01;54.25;99372.28;5063048;28;20045;-70
2021/06/12 13:23:00;;;;;;;93.47;8.55;;;;;;;21.18;55.25;99365.75;5051871;28;20082;-69
2021/06/12 13:25:26;;;;;;;19.40;4.82;;;;;;;21.46;53.53;99377.44;5062612;28;20451;-68
2021/06/12 13:28:06;;;;;;;5.47;2.58;;;;;;;21.55;53.99;99371.31;5053926;28;20104;-71
2021/06/12 13:30:40;;;;;;;3.35;2.53;;;;;;;21.48;55.83;99372.16;5057331;28;20075;-67
2021/06/12 13:33:17;;;;;;;7.32;4.43;;;;;;;21.53;56.31;99376.59;5052076;28;20029;-66
2021/06/12 13:35:57;;;;;;;4.05;2.72;;;;;;;21.37;57.37;99371.38;5060771;28;20033;-67
2021/06/12 13:38:46;;;;;;;9.13;2.53;;;;;;;21.18;56.17;99364.94;5058625;28;20029;-70
2021/06/12 13:41:13;;;;;;;6.50;2.95;;;;;;;21.26;59.69;99366.53;5062517;28;20037;-72
2021/06/12 13:43:40;;;;;;;13.30;3.08;;;;;;;21.57;59.02;99363.16;5056073;28;20017;-68
2021/06/12 13:46:20;;;;;;;6.07;3.45;;;;;;;21.77;59.14;99359.84;5062052;28;20029;-69
2021/06/12 13:48:46;;;;;;;;;;;;;;;21.86;58.99;99366.72;5058677;28;20021;-69
2021/06/12 13:51:13;;;;;;;9.10;2.92;;;;;;;22.01;59.36;99358.06;5059752;28;19927;-67
2021/06/12 13:53:40;;;;;;;8.27;3.35;;;;;;;21.91;61.46;99365.47;5064771;28;20494;-68
2021/06/12 13:56:10;;;;;;;7.28;4.10;;;;;;;21.59;62.09;99360.72;5055422;28;20037;-70
2021/06/12 13:58:36;;;;;;;14.40;4.43;;;;;;;21.72;62.80;99364.75;5070137;28;20072;-70
2021/06/12 14:01:06;;;;;;;5.07;3.85;;;;;;;21.88;64.61;99363.47;5062369;28;20048;-69
2021/06/12 14:03:32;;;;;;;5.28;3.75;;;;;;;22.39;59.19;99348.88;5069376;28;20082;-69
2021/06/12 14:05:57;;;;;;;8.20;3.00;;;;;;;22.67;59.49;99356.41;5070927;28;20045;-69
2021/06/12 14:08:23;;;;;;;4.95;3.22;;;;;;;22.91;58.38;99344.34;5059318;28;20448;-70
2021/06/12 14:10:49;;;;;;;6.43;2.80;;;;;;;23.17;53.89;99348.56;5050525;28;20090;-70
2021/06/12 14:13:15;;;;;;;5.25;2.47;;;;;;;23.50;51.15;99333.94;5054730;28;20028;-70
2021/06/12 14:15:40;;;;;;;3.97;2.67;;;;;;;23.58;52.23;99335.47;5069754;28;20080;-69
2021/06/12 14:18:06;;;;;;;10.18;2.60;;;;;;;23.52;50.65;99342.88;5071141;28;20020;-69
2021/06/12 14:20:32;;;;;;;3.00;1.70;;;;;;;23.49;47.27;99346.59;5062040;28;20033;-70
2021/06/12 14:22:58;;;;;;;1.98;1.60;;;;;;;23.83;47.10;99340.03;5057823;28;20035;-72
2021/06/12 14:25:23;;;;;;;2.35;1.60;;;;;;;24.03;45.41;99337.31;5062623;28;20029;-69
2021/06/12 14:27:49;;;;;;;5.85;2.10;;;;;;;24.21;46.80;99333.38;5067895;28;20033;-69
2021/06/12 14:30:15;;;;;;;2.45;1.90;;;;;;;24.34;44.57;99337.25;5056960;28;20025;-69
2021/06/12 14:32:42;;;;;;;3.58;1.83;;;;;;;24.18;43.08;99337.09;5067454;28;20119;-69
2021/06/12 14:35:09;;;;;;;1.77;1.40;;;;;;;24.13;41.84;99337.59;5065154;28;20036;-69
2021/06/12 14:37:35;;;;;;;7.20;1.42;;;;;;;23.70;40.92;99336.94;5064767;28;20036;-69
2021/06/12 14:40:02;;;;;;;4.03;1.55;;;;;;;23.72;42.38;99336.50;5056104;28;20044;-69